sensor_id;sensor_type;location;lat;lon;timestamp;temperature;humidity
59505;DHT22;45321;53.200;5.814;2022-09-21T00:00:04;12.90;77.00
59505;DHT22;45321;53.200;5.814;2022-09-21T00:02:30;12.90;77.00
59505;DHT22;45321;53.200;5.814;2022-09-21T00:04:56;12.90;77.00
59505;DHT22;45321;53.200;5.814;2022-09-21T00:07:21;12.80;77.00
59505;DHT22;45321;53.200;5.814;2022-09-21T00:09:47;12.80;76.80
59505;DHT22;45321;53.200;5.814;2022-09-21T00:12:13;12.80;76.90
59505;DHT22;45321;53.200;5.814;2022-09-21T00:14:41;12.80;77.00
59505;DHT22;45321;53.200;5.814;2022-09-21T00:17:06;12.80;77.20
59505;DHT22;45321;53.200;5.814;2022-09-21T00:19:34;12.80;77.40
59505;DHT22;45321;53.200;5.814;2022-09-21T00:22:00;12.80;77.40
59505;DHT22;45321;53.200;5.814;2022-09-21T00:24:26;12.80;77.50
59505;DHT22;45321;53.200;5.814;2022-09-21T00:26:52;12.80;77.50
59505;DHT22;45321;53.200;5.814;2022-09-21T00:29:18;12.80;77.60
59505;DHT22;45321;53.200;5.814;2022-09-21T00:31:44;12.80;77.60
59505;DHT22;45321;53.200;5.814;2022-09-21T00:34:10;12.80;77.90
59505;DHT22;45321;53.200;5.814;2022-09-21T00:36:35;12.80;77.80
59505;DHT22;45321;53.200;5.814;2022-09-21T00:39:02;12.80;77.80
59505;DHT22;45321;53.200;5.814;2022-09-21T00:41:30;12.80;77.80
59505;DHT22;45321;53.200;5.814;2022-09-21T00:46:41;12.80;77.70
59505;DHT22;45321;53.200;5.814;2022-09-21T00:49:08;12.80;77.80
59505;DHT22;45321;53.200;5.814;2022-09-21T00:51:35;12.80;77.70
59505;DHT22;45321;53.200;5.814;2022-09-21T00:54:06;12.90;77.80
59505;DHT22;45321;53.200;5.814;2022-09-21T00:56:33;12.90;77.70
59505;DHT22;45321;53.200;5.814;2022-09-21T00:59:02;12.80;77.80
59505;DHT22;45321;53.200;5.814;2022-09-21T01:01:28;12.80;77.90
59505;DHT22;45321;53.200;5.814;2022-09-21T01:03:54;12.80;77.90
59505;DHT22;45321;53.200;5.814;2022-09-21T01:06:22;12.80;77.80
59505;DHT22;45321;53.200;5.814;2022-09-21T01:08:54;12.80;77.90
59505;DHT22;45321;53.200;5.814;2022-09-21T01:14:10;12.80;77.70
59505;DHT22;45321;53.200;5.814;2022-09-21T01:17:00;12.70;77.90
59505;DHT22;45321;53.200;5.814;2022-09-21T01:24:50;12.60;78.10
59505;DHT22;45321;53.200;5.814;2022-09-21T01:30:11;12.60;78.20
59505;DHT22;45321;53.200;5.814;2022-09-21T01:32:44;12.60;78.00
59505;DHT22;45321;53.200;5.814;2022-09-21T01:35:27;12.50;77.80
59505;DHT22;45321;53.200;5.814;2022-09-21T01:41:00;12.40;78.00
59505;DHT22;45321;53.200;5.814;2022-09-21T01:43:31;12.30;78.10
59505;DHT22;45321;53.200;5.814;2022-09-21T01:46:00;12.30;78.10
59505;DHT22;45321;53.200;5.814;2022-09-21T01:48:32;12.30;78.30
59505;DHT22;45321;53.200;5.814;2022-09-21T01:51:02;12.30;78.20
59505;DHT22;45321;53.200;5.814;2022-09-21T01:53:36;12.30;78.30
59505;DHT22;45321;53.200;5.814;2022-09-21T02:00:06;12.20;78.60
59505;DHT22;45321;53.200;5.814;2022-09-21T02:02:10;12.20;78.70
59505;DHT22;45321;53.200;5.814;2022-09-21T02:04:38;12.20;78.50
59505;DHT22;45321;53.200;5.814;2022-09-21T02:07:05;12.20;78.50
59505;DHT22;45321;53.200;5.814;2022-09-21T02:09:33;12.10;78.50
59505;DHT22;45321;53.200;5.814;2022-09-21T02:12:00;12.10;78.70
59505;DHT22;45321;53.200;5.814;2022-09-21T02:14:25;12.10;78.60
59505;DHT22;45321;53.200;5.814;2022-09-21T02:17:27;12.00;78.70
59505;DHT22;45321;53.200;5.814;2022-09-21T02:20:18;12.00;78.70
59505;DHT22;45321;53.200;5.814;2022-09-21T02:22:56;12.00;78.80
59505;DHT22;45321;53.200;5.814;2022-09-21T02:25:34;12.00;78.90
59505;DHT22;45321;53.200;5.814;2022-09-21T02:31:05;11.90;79.00
59505;DHT22;45321;53.200;5.814;2022-09-21T02:34:01;11.90;79.00
59505;DHT22;45321;53.200;5.814;2022-09-21T02:36:37;11.90;79.00
59505;DHT22;45321;53.200;5.814;2022-09-21T02:39:16;11.80;79.10
59505;DHT22;45321;53.200;5.814;2022-09-21T02:45:17;11.80;79.20
59505;DHT22;45321;53.200;5.814;2022-09-21T02:50:18;11.80;79.10
59505;DHT22;45321;53.200;5.814;2022-09-21T02:52:46;11.80;79.20
59505;DHT22;45321;53.200;5.814;2022-09-21T02:55:14;11.80;79.30
59505;DHT22;45321;53.200;5.814;2022-09-21T02:57:42;11.80;79.20
59505;DHT22;45321;53.200;5.814;2022-09-21T03:00:09;11.70;79.30
59505;DHT22;45321;53.200;5.814;2022-09-21T03:02:39;11.70;79.20
59505;DHT22;45321;53.200;5.814;2022-09-21T03:05:06;11.70;79.30
59505;DHT22;45321;53.200;5.814;2022-09-21T03:07:32;11.60;79.10
59505;DHT22;45321;53.200;5.814;2022-09-21T03:09:58;11.60;79.30
59505;DHT22;45321;53.200;5.814;2022-09-21T03:12:24;11.60;79.50
59505;DHT22;45321;53.200;5.814;2022-09-21T03:14:51;11.60;79.30
59505;DHT22;45321;53.200;5.814;2022-09-21T03:17:18;11.60;79.40
59505;DHT22;45321;53.200;5.814;2022-09-21T03:19:43;11.60;79.30
59505;DHT22;45321;53.200;5.814;2022-09-21T03:22:09;11.60;79.40
59505;DHT22;45321;53.200;5.814;2022-09-21T03:24:35;11.50;79.40
59505;DHT22;45321;53.200;5.814;2022-09-21T03:27:18;11.50;79.50
59505;DHT22;45321;53.200;5.814;2022-09-21T03:29:44;11.50;79.60
59505;DHT22;45321;53.200;5.814;2022-09-21T03:32:10;11.50;79.60
59505;DHT22;45321;53.200;5.814;2022-09-21T03:34:36;11.50;79.70
59505;DHT22;45321;53.200;5.814;2022-09-21T03:37:03;11.50;79.70
59505;DHT22;45321;53.200;5.814;2022-09-21T03:39:30;11.50;79.80
59505;DHT22;45321;53.200;5.814;2022-09-21T03:41:56;11.40;79.70
59505;DHT22;45321;53.200;5.814;2022-09-21T03:44:23;11.40;79.70
59505;DHT22;45321;53.200;5.814;2022-09-21T03:46:49;11.40;79.70
59505;DHT22;45321;53.200;5.814;2022-09-21T03:49:16;11.40;79.80
59505;DHT22;45321;53.200;5.814;2022-09-21T03:51:41;11.40;79.80
59505;DHT22;45321;53.200;5.814;2022-09-21T03:54:08;11.40;79.90
59505;DHT22;45321;53.200;5.814;2022-09-21T03:56:33;11.40;80.00
59505;DHT22;45321;53.200;5.814;2022-09-21T03:58:59;11.40;80.00
59505;DHT22;45321;53.200;5.814;2022-09-21T04:01:25;11.40;80.10
59505;DHT22;45321;53.200;5.814;2022-09-21T04:03:51;11.40;80.10
59505;DHT22;45321;53.200;5.814;2022-09-21T04:06:17;11.40;80.10
59505;DHT22;45321;53.200;5.814;2022-09-21T04:08:43;11.40;80.10
59505;DHT22;45321;53.200;5.814;2022-09-21T04:11:27;11.40;80.20
59505;DHT22;45321;53.200;5.814;2022-09-21T04:13:53;11.30;80.00
59505;DHT22;45321;53.200;5.814;2022-09-21T04:16:23;11.30;80.10
59505;DHT22;45321;53.200;5.814;2022-09-21T04:18:49;11.30;80.10
59505;DHT22;45321;53.200;5.814;2022-09-21T04:21:16;11.30;80.00
59505;DHT22;45321;53.200;5.814;2022-09-21T04:23:42;11.30;80.00
59505;DHT22;45321;53.200;5.814;2022-09-21T04:26:25;11.30;80.00
59505;DHT22;45321;53.200;5.814;2022-09-21T04:28:52;11.30;80.00
59505;DHT22;45321;53.200;5.814;2022-09-21T04:31:18;11.20;80.00
59505;DHT22;45321;53.200;5.814;2022-09-21T04:33:47;11.20;79.90
59505;DHT22;45321;53.200;5.814;2022-09-21T04:36:14;11.20;80.00
59505;DHT22;45321;53.200;5.814;2022-09-21T04:38:40;11.20;80.10
59505;DHT22;45321;53.200;5.814;2022-09-21T04:41:05;11.20;80.10
59505;DHT22;45321;53.200;5.814;2022-09-21T04:43:31;11.10;80.10
59505;DHT22;45321;53.200;5.814;2022-09-21T04:45:57;11.20;80.10
59505;DHT22;45321;53.200;5.814;2022-09-21T04:48:23;11.10;80.20
59505;DHT22;45321;53.200;5.814;2022-09-21T04:50:49;11.10;80.20
59505;DHT22;45321;53.200;5.814;2022-09-21T04:53:16;11.10;80.10
59505;DHT22;45321;53.200;5.814;2022-09-21T04:55:43;11.10;80.10
59505;DHT22;45321;53.200;5.814;2022-09-21T04:58:08;11.00;80.20
59505;DHT22;45321;53.200;5.814;2022-09-21T05:00:34;11.10;80.40
59505;DHT22;45321;53.200;5.814;2022-09-21T05:03:00;11.00;80.40
59505;DHT22;45321;53.200;5.814;2022-09-21T05:05:26;11.00;80.40
59505;DHT22;45321;53.200;5.814;2022-09-21T05:07:52;11.00;80.30
59505;DHT22;45321;53.200;5.814;2022-09-21T05:10:17;11.00;80.30
59505;DHT22;45321;53.200;5.814;2022-09-21T05:12:43;11.00;80.40
59505;DHT22;45321;53.200;5.814;2022-09-21T05:15:09;11.00;80.40
59505;DHT22;45321;53.200;5.814;2022-09-21T05:17:39;11.00;80.50
59505;DHT22;45321;53.200;5.814;2022-09-21T05:20:05;11.00;80.50
59505;DHT22;45321;53.200;5.814;2022-09-21T05:22:31;11.00;80.40
59505;DHT22;45321;53.200;5.814;2022-09-21T05:24:57;11.00;80.30
59505;DHT22;45321;53.200;5.814;2022-09-21T05:27:23;11.00;80.30
59505;DHT22;45321;53.200;5.814;2022-09-21T05:29:49;11.00;80.40
59505;DHT22;45321;53.200;5.814;2022-09-21T05:34:55;10.90;80.40
59505;DHT22;45321;53.200;5.814;2022-09-21T05:37:44;10.90;80.30
59505;DHT22;45321;53.200;5.814;2022-09-21T05:40:12;10.90;80.30
59505;DHT22;45321;53.200;5.814;2022-09-21T05:42:38;10.90;80.40
59505;DHT22;45321;53.200;5.814;2022-09-21T05:45:04;10.90;80.40
59505;DHT22;45321;53.200;5.814;2022-09-21T05:47:40;10.90;80.70
59505;DHT22;45321;53.200;5.814;2022-09-21T05:55:58;10.90;80.60
59505;DHT22;45321;53.200;5.814;2022-09-21T05:58:55;10.90;80.70
59505;DHT22;45321;53.200;5.814;2022-09-21T06:04:21;10.90;80.80
59505;DHT22;45321;53.200;5.814;2022-09-21T06:06:47;10.90;80.80
59505;DHT22;45321;53.200;5.814;2022-09-21T06:09:13;11.00;81.00
59505;DHT22;45321;53.200;5.814;2022-09-21T06:11:39;10.90;81.00
59505;DHT22;45321;53.200;5.814;2022-09-21T06:14:04;11.00;81.00
59505;DHT22;45321;53.200;5.814;2022-09-21T06:16:38;11.00;81.00
59505;DHT22;45321;53.200;5.814;2022-09-21T06:19:04;11.10;81.00
59505;DHT22;45321;53.200;5.814;2022-09-21T06:21:30;11.00;81.10
59505;DHT22;45321;53.200;5.814;2022-09-21T06:23:56;11.10;81.00
59505;DHT22;45321;53.200;5.814;2022-09-21T06:26:22;11.10;81.30
59505;DHT22;45321;53.200;5.814;2022-09-21T06:28:47;11.10;81.20
59505;DHT22;45321;53.200;5.814;2022-09-21T06:31:13;11.10;81.30
59505;DHT22;45321;53.200;5.814;2022-09-21T06:33:39;11.10;81.30
59505;DHT22;45321;53.200;5.814;2022-09-21T06:36:04;11.10;81.40
59505;DHT22;45321;53.200;5.814;2022-09-21T06:38:33;11.20;81.30
59505;DHT22;45321;53.200;5.814;2022-09-21T06:41:04;11.20;81.50
59505;DHT22;45321;53.200;5.814;2022-09-21T06:43:31;11.20;81.50
59505;DHT22;45321;53.200;5.814;2022-09-21T06:45:58;11.20;81.60
59505;DHT22;45321;53.200;5.814;2022-09-21T06:48:25;11.30;81.70
59505;DHT22;45321;53.200;5.814;2022-09-21T06:50:59;11.30;81.70
59505;DHT22;45321;53.200;5.814;2022-09-21T06:53:26;11.30;81.80
59505;DHT22;45321;53.200;5.814;2022-09-21T06:55:52;11.40;81.90
59505;DHT22;45321;53.200;5.814;2022-09-21T06:58:18;11.50;81.90
59505;DHT22;45321;53.200;5.814;2022-09-21T07:00:44;11.50;82.00
59505;DHT22;45321;53.200;5.814;2022-09-21T07:03:11;11.60;82.00
59505;DHT22;45321;53.200;5.814;2022-09-21T07:05:44;11.70;82.10
59505;DHT22;45321;53.200;5.814;2022-09-21T07:08:10;11.80;82.10
59505;DHT22;45321;53.200;5.814;2022-09-21T07:10:36;11.80;82.10
59505;DHT22;45321;53.200;5.814;2022-09-21T07:13:04;11.80;82.10
59505;DHT22;45321;53.200;5.814;2022-09-21T07:15:31;11.90;82.20
59505;DHT22;45321;53.200;5.814;2022-09-21T07:17:57;12.00;82.20
59505;DHT22;45321;53.200;5.814;2022-09-21T07:20:23;12.10;82.10
59505;DHT22;45321;53.200;5.814;2022-09-21T07:22:49;12.20;82.10
59505;DHT22;45321;53.200;5.814;2022-09-21T07:25:15;12.30;82.00
59505;DHT22;45321;53.200;5.814;2022-09-21T07:27:41;12.50;81.70
59505;DHT22;45321;53.200;5.814;2022-09-21T07:30:07;12.60;81.60
59505;DHT22;45321;53.200;5.814;2022-09-21T07:32:33;12.80;81.50
59505;DHT22;45321;53.200;5.814;2022-09-21T07:34:59;12.90;81.30
59505;DHT22;45321;53.200;5.814;2022-09-21T07:37:25;13.00;81.20
59505;DHT22;45321;53.200;5.814;2022-09-21T07:39:52;13.10;81.10
59505;DHT22;45321;53.200;5.814;2022-09-21T07:42:18;13.30;81.20
59505;DHT22;45321;53.200;5.814;2022-09-21T07:44:48;13.30;81.10
59505;DHT22;45321;53.200;5.814;2022-09-21T07:47:14;13.50;81.10
59505;DHT22;45321;53.200;5.814;2022-09-21T07:49:40;13.70;80.80
59505;DHT22;45321;53.200;5.814;2022-09-21T07:52:07;13.80;80.40
59505;DHT22;45321;53.200;5.814;2022-09-21T07:54:34;13.80;80.40
59505;DHT22;45321;53.200;5.814;2022-09-21T07:57:01;14.00;80.30
59505;DHT22;45321;53.200;5.814;2022-09-21T07:59:45;14.10;80.40
59505;DHT22;45321;53.200;5.814;2022-09-21T08:02:11;14.20;80.20
59505;DHT22;45321;53.200;5.814;2022-09-21T08:04:37;14.20;80.00
59505;DHT22;45321;53.200;5.814;2022-09-21T08:07:03;14.30;79.90
59505;DHT22;45321;53.200;5.814;2022-09-21T08:09:32;14.40;79.80
59505;DHT22;45321;53.200;5.814;2022-09-21T08:11:58;14.50;79.60
59505;DHT22;45321;53.200;5.814;2022-09-21T08:14:26;14.60;79.50
59505;DHT22;45321;53.200;5.814;2022-09-21T08:16:52;14.60;79.10
59505;DHT22;45321;53.200;5.814;2022-09-21T08:19:17;14.70;78.60
59505;DHT22;45321;53.200;5.814;2022-09-21T08:21:43;14.70;77.90
59505;DHT22;45321;53.200;5.814;2022-09-21T08:24:09;14.80;77.60
59505;DHT22;45321;53.200;5.814;2022-09-21T08:26:35;14.90;77.60
59505;DHT22;45321;53.200;5.814;2022-09-21T08:29:01;15.00;77.70
59505;DHT22;45321;53.200;5.814;2022-09-21T08:31:27;15.00;77.00
59505;DHT22;45321;53.200;5.814;2022-09-21T08:33:54;15.10;76.30
59505;DHT22;45321;53.200;5.814;2022-09-21T08:36:22;15.20;75.30
59505;DHT22;45321;53.200;5.814;2022-09-21T08:38:48;15.30;75.70
59505;DHT22;45321;53.200;5.814;2022-09-21T08:43:50;15.40;75.00
59505;DHT22;45321;53.200;5.814;2022-09-21T08:46:23;15.50;74.30
59505;DHT22;45321;53.200;5.814;2022-09-21T08:49:02;15.50;73.80
59505;DHT22;45321;53.200;5.814;2022-09-21T08:51:35;15.50;72.40
59505;DHT22;45321;53.200;5.814;2022-09-21T08:54:15;15.60;73.30
59505;DHT22;45321;53.200;5.814;2022-09-21T08:56:44;15.60;73.30
59505;DHT22;45321;53.200;5.814;2022-09-21T08:59:13;15.70;72.70
59505;DHT22;45321;53.200;5.814;2022-09-21T09:01:54;15.70;71.70
59505;DHT22;45321;53.200;5.814;2022-09-21T09:09:59;16.00;71.20
59505;DHT22;45321;53.200;5.814;2022-09-21T09:12:50;16.10;70.70
59505;DHT22;45321;53.200;5.814;2022-09-21T09:24:01;16.30;68.60
59505;DHT22;45321;53.200;5.814;2022-09-21T09:31:58;16.70;68.20
59505;DHT22;45321;53.200;5.814;2022-09-21T09:34:35;16.80;65.90
59505;DHT22;45321;53.200;5.814;2022-09-21T09:37:11;16.80;65.90
59505;DHT22;45321;53.200;5.814;2022-09-21T09:39:38;16.80;64.40
59505;DHT22;45321;53.200;5.814;2022-09-21T09:47:38;16.90;67.00
59505;DHT22;45321;53.200;5.814;2022-09-21T09:50:16;17.00;66.70
59505;DHT22;45321;53.200;5.814;2022-09-21T09:52:48;17.00;66.30
59505;DHT22;45321;53.200;5.814;2022-09-21T09:55:26;17.10;66.60
59505;DHT22;45321;53.200;5.814;2022-09-21T09:57:55;17.20;66.10
59505;DHT22;45321;53.200;5.814;2022-09-21T10:00:21;17.20;65.50
59505;DHT22;45321;53.200;5.814;2022-09-21T10:02:51;17.30;63.90
59505;DHT22;45321;53.200;5.814;2022-09-21T10:07:46;17.50;64.00
59505;DHT22;45321;53.200;5.814;2022-09-21T10:10:29;17.60;63.90
59505;DHT22;45321;53.200;5.814;2022-09-21T10:15:56;17.80;64.00
59505;DHT22;45321;53.200;5.814;2022-09-21T10:21:32;18.00;64.60
59505;DHT22;45321;53.200;5.814;2022-09-21T10:24:01;18.10;63.70
59505;DHT22;45321;53.200;5.814;2022-09-21T10:31:30;18.50;63.20
59505;DHT22;45321;53.200;5.814;2022-09-21T10:34:06;18.50;62.30
59505;DHT22;45321;53.200;5.814;2022-09-21T10:36:37;18.60;61.30
59505;DHT22;45321;53.200;5.814;2022-09-21T10:39:25;18.70;60.30
59505;DHT22;45321;53.200;5.814;2022-09-21T10:44:44;19.00;60.70
59505;DHT22;45321;53.200;5.814;2022-09-21T10:47:26;19.20;59.80
59505;DHT22;45321;53.200;5.814;2022-09-21T10:49:59;19.30;57.60
59505;DHT22;45321;53.200;5.814;2022-09-21T10:52:39;19.50;56.90
59505;DHT22;45321;53.200;5.814;2022-09-21T10:55:18;19.60;56.60
59505;DHT22;45321;53.200;5.814;2022-09-21T10:57:44;19.70;55.90
59505;DHT22;45321;53.200;5.814;2022-09-21T11:02:46;20.20;58.60
59505;DHT22;45321;53.200;5.814;2022-09-21T11:05:22;20.40;56.00
59505;DHT22;45321;53.200;5.814;2022-09-21T11:08:14;20.60;53.80
59505;DHT22;45321;53.200;5.814;2022-09-21T11:13:37;21.20;52.90
59505;DHT22;45321;53.200;5.814;2022-09-21T11:16:20;21.40;53.90
59505;DHT22;45321;53.200;5.814;2022-09-21T11:18:59;21.70;51.40
59505;DHT22;45321;53.200;5.814;2022-09-21T11:27:31;22.50;47.70
59505;DHT22;45321;53.200;5.814;2022-09-21T11:30:12;22.70;47.10
59505;DHT22;45321;53.200;5.814;2022-09-21T11:35:51;22.90;48.40
59505;DHT22;45321;53.200;5.814;2022-09-21T11:41:34;23.40;46.20
59505;DHT22;45321;53.200;5.814;2022-09-21T11:47:13;23.60;44.20
59505;DHT22;45321;53.200;5.814;2022-09-21T11:55:04;23.90;40.00
59505;DHT22;45321;53.200;5.814;2022-09-21T11:58:00;24.00;42.00
59505;DHT22;45321;53.200;5.814;2022-09-21T12:06:26;24.20;39.00
59505;DHT22;45321;53.200;5.814;2022-09-21T12:21:54;24.30;37.70
59505;DHT22;45321;53.200;5.814;2022-09-21T12:24:32;24.40;37.60
59505;DHT22;45321;53.200;5.814;2022-09-21T12:27:25;24.50;39.40
59505;DHT22;45321;53.200;5.814;2022-09-21T12:29:56;24.60;39.10
59505;DHT22;45321;53.200;5.814;2022-09-21T12:32:41;24.70;38.90
59505;DHT22;45321;53.200;5.814;2022-09-21T12:38:17;24.90;39.80
59505;DHT22;45321;53.200;5.814;2022-09-21T12:40:54;24.90;37.60
59505;DHT22;45321;53.200;5.814;2022-09-21T12:46:36;24.80;36.80
59505;DHT22;45321;53.200;5.814;2022-09-21T12:49:13;24.90;38.80
59505;DHT22;45321;53.200;5.814;2022-09-21T12:51:47;24.90;37.50
59505;DHT22;45321;53.200;5.814;2022-09-21T12:54:40;24.90;39.40
59505;DHT22;45321;53.200;5.814;2022-09-21T12:57:13;25.00;39.00
59505;DHT22;45321;53.200;5.814;2022-09-21T12:59:49;25.00;37.60
59505;DHT22;45321;53.200;5.814;2022-09-21T13:02:22;25.10;38.40
59505;DHT22;45321;53.200;5.814;2022-09-21T13:08:05;25.10;40.80
59505;DHT22;45321;53.200;5.814;2022-09-21T13:15:58;24.70;38.20
59505;DHT22;45321;53.200;5.814;2022-09-21T13:18:30;24.70;38.30
59505;DHT22;45321;53.200;5.814;2022-09-21T13:20:59;24.70;38.40
59505;DHT22;45321;53.200;5.814;2022-09-21T13:23:35;24.40;39.30
59505;DHT22;45321;53.200;5.814;2022-09-21T13:26:06;24.00;40.40
59505;DHT22;45321;53.200;5.814;2022-09-21T13:31:40;23.30;41.10
59505;DHT22;45321;53.200;5.814;2022-09-21T13:36:44;23.00;42.70
59505;DHT22;45321;53.200;5.814;2022-09-21T13:39:19;22.90;43.50
59505;DHT22;45321;53.200;5.814;2022-09-21T13:41:45;22.90;44.30
59505;DHT22;45321;53.200;5.814;2022-09-21T13:44:37;22.80;43.40
59505;DHT22;45321;53.200;5.814;2022-09-21T13:47:06;22.70;43.40
59505;DHT22;45321;53.200;5.814;2022-09-21T13:49:46;22.70;43.80
59505;DHT22;45321;53.200;5.814;2022-09-21T13:52:28;22.70;44.80
59505;DHT22;45321;53.200;5.814;2022-09-21T13:55:02;22.70;44.20
59505;DHT22;45321;53.200;5.814;2022-09-21T13:57:30;22.60;42.20
59505;DHT22;45321;53.200;5.814;2022-09-21T14:02:43;22.50;43.00
59505;DHT22;45321;53.200;5.814;2022-09-21T14:05:36;22.60;44.00
59505;DHT22;45321;53.200;5.814;2022-09-21T14:08:25;22.60;43.90
59505;DHT22;45321;53.200;5.814;2022-09-21T14:10:59;22.50;44.00
59505;DHT22;45321;53.200;5.814;2022-09-21T14:19:03;22.50;44.20
59505;DHT22;45321;53.200;5.814;2022-09-21T14:21:29;22.30;44.80
59505;DHT22;45321;53.200;5.814;2022-09-21T14:24:20;22.30;45.30
59505;DHT22;45321;53.200;5.814;2022-09-21T14:27:00;22.10;45.10
59505;DHT22;45321;53.200;5.814;2022-09-21T14:32:41;21.50;47.00
59505;DHT22;45321;53.200;5.814;2022-09-21T14:35:14;21.40;47.50
59505;DHT22;45321;53.200;5.814;2022-09-21T14:37:51;21.20;47.40
59505;DHT22;45321;53.200;5.814;2022-09-21T14:42:56;21.00;48.30
59505;DHT22;45321;53.200;5.814;2022-09-21T14:51:45;20.70;49.10
59505;DHT22;45321;53.200;5.814;2022-09-21T14:57:40;20.60;49.20
59505;DHT22;45321;53.200;5.814;2022-09-21T15:00:24;20.60;50.00
59505;DHT22;45321;53.200;5.814;2022-09-21T15:12:39;21.20;49.70
59505;DHT22;45321;53.200;5.814;2022-09-21T15:17:56;21.70;47.90
59505;DHT22;45321;53.200;5.814;2022-09-21T15:20:30;21.90;47.30
59505;DHT22;45321;53.200;5.814;2022-09-21T15:22:58;22.00;47.90
59505;DHT22;45321;53.200;5.814;2022-09-21T15:25:26;21.90;49.70
59505;DHT22;45321;53.200;5.814;2022-09-21T15:27:53;21.80;49.60
59505;DHT22;45321;53.200;5.814;2022-09-21T15:30:24;21.70;49.70
59505;DHT22;45321;53.200;5.814;2022-09-21T15:32:53;21.70;49.70
59505;DHT22;45321;53.200;5.814;2022-09-21T15:35:22;21.70;50.00
59505;DHT22;45321;53.200;5.814;2022-09-21T15:37:49;21.80;50.80
59505;DHT22;45321;53.200;5.814;2022-09-21T15:40:17;22.40;50.60
59505;DHT22;45321;53.200;5.814;2022-09-21T15:43:03;23.20;49.70
59505;DHT22;45321;53.200;5.814;2022-09-21T15:48:22;23.90;47.50
59505;DHT22;45321;53.200;5.814;2022-09-21T15:53:31;23.60;48.10
59505;DHT22;45321;53.200;5.814;2022-09-21T15:55:58;23.60;47.60
59505;DHT22;45321;53.200;5.814;2022-09-21T15:58:30;23.70;47.50
59505;DHT22;45321;53.200;5.814;2022-09-21T16:01:00;23.70;47.40
59505;DHT22;45321;53.200;5.814;2022-09-21T16:03:27;23.70;47.10
59505;DHT22;45321;53.200;5.814;2022-09-21T16:05:55;23.50;47.20
59505;DHT22;45321;53.200;5.814;2022-09-21T16:08:35;23.20;48.10
59505;DHT22;45321;53.200;5.814;2022-09-21T16:11:16;23.00;49.10
59505;DHT22;45321;53.200;5.814;2022-09-21T16:13:47;22.90;49.40
59505;DHT22;45321;53.200;5.814;2022-09-21T16:16:32;22.80;49.10
59505;DHT22;45321;53.200;5.814;2022-09-21T16:18:58;22.70;48.90
59505;DHT22;45321;53.200;5.814;2022-09-21T16:21:30;22.50;48.90
59505;DHT22;45321;53.200;5.814;2022-09-21T16:24:15;22.30;49.10
59505;DHT22;45321;53.200;5.814;2022-09-21T16:26:54;22.20;49.50
59505;DHT22;45321;53.200;5.814;2022-09-21T16:29:25;22.10;49.90
59505;DHT22;45321;53.200;5.814;2022-09-21T16:32:19;21.80;50.00
59505;DHT22;45321;53.200;5.814;2022-09-21T16:34:47;21.70;50.30
59505;DHT22;45321;53.200;5.814;2022-09-21T16:39:50;21.40;51.00
59505;DHT22;45321;53.200;5.814;2022-09-21T16:42:17;21.20;51.10
59505;DHT22;45321;53.200;5.814;2022-09-21T16:44:45;21.10;51.50
59505;DHT22;45321;53.200;5.814;2022-09-21T16:47:20;21.00;51.80
59505;DHT22;45321;53.200;5.814;2022-09-21T16:49:59;20.80;52.00
59505;DHT22;45321;53.200;5.814;2022-09-21T16:52:27;20.70;52.60
59505;DHT22;45321;53.200;5.814;2022-09-21T16:54:54;20.70;52.40
59505;DHT22;45321;53.200;5.814;2022-09-21T16:57:24;20.60;52.80
59505;DHT22;45321;53.200;5.814;2022-09-21T16:59:51;20.60;53.00
59505;DHT22;45321;53.200;5.814;2022-09-21T17:02:17;20.50;53.20
59505;DHT22;45321;53.200;5.814;2022-09-21T17:04:43;20.30;52.90
59505;DHT22;45321;53.200;5.814;2022-09-21T17:07:11;20.30;53.20
59505;DHT22;45321;53.200;5.814;2022-09-21T17:09:39;20.20;53.80
59505;DHT22;45321;53.200;5.814;2022-09-21T17:12:09;20.10;53.80
59505;DHT22;45321;53.200;5.814;2022-09-21T17:14:36;20.00;53.50
59505;DHT22;45321;53.200;5.814;2022-09-21T17:17:18;19.90;53.70
59505;DHT22;45321;53.200;5.814;2022-09-21T17:19:46;19.80;53.80
59505;DHT22;45321;53.200;5.814;2022-09-21T17:22:17;19.70;54.20
59505;DHT22;45321;53.200;5.814;2022-09-21T17:24:47;19.70;54.50
59505;DHT22;45321;53.200;5.814;2022-09-21T17:27:15;19.60;54.80
59505;DHT22;45321;53.200;5.814;2022-09-21T17:29:44;19.50;54.80
59505;DHT22;45321;53.200;5.814;2022-09-21T17:32:19;19.40;55.20
59505;DHT22;45321;53.200;5.814;2022-09-21T17:34:46;19.30;55.40
59505;DHT22;45321;53.200;5.814;2022-09-21T17:37:14;19.30;55.70
59505;DHT22;45321;53.200;5.814;2022-09-21T17:39:40;19.20;56.30
59505;DHT22;45321;53.200;5.814;2022-09-21T17:42:16;19.10;56.60
59505;DHT22;45321;53.200;5.814;2022-09-21T17:47:24;19.00;56.80
59505;DHT22;45321;53.200;5.814;2022-09-21T17:50:23;18.80;57.00
59505;DHT22;45321;53.200;5.814;2022-09-21T17:52:48;18.80;57.10
59505;DHT22;45321;53.200;5.814;2022-09-21T17:55:33;18.70;57.50
59505;DHT22;45321;53.200;5.814;2022-09-21T17:58:22;18.70;57.60
59505;DHT22;45321;53.200;5.814;2022-09-21T18:03:32;18.50;58.10
59505;DHT22;45321;53.200;5.814;2022-09-21T18:06:00;18.40;58.20
59505;DHT22;45321;53.200;5.814;2022-09-21T18:08:27;18.30;58.50
59505;DHT22;45321;53.200;5.814;2022-09-21T18:11:18;18.30;58.70
59505;DHT22;45321;53.200;5.814;2022-09-21T18:19:39;18.10;59.20
59505;DHT22;45321;53.200;5.814;2022-09-21T18:22:23;18.00;59.30
59505;DHT22;45321;53.200;5.814;2022-09-21T18:24:54;17.90;59.70
59505;DHT22;45321;53.200;5.814;2022-09-21T18:27:20;17.80;59.80
59505;DHT22;45321;53.200;5.814;2022-09-21T18:29:47;17.80;60.10
59505;DHT22;45321;53.200;5.814;2022-09-21T18:34:58;17.70;60.50
59505;DHT22;45321;53.200;5.814;2022-09-21T18:37:34;17.60;60.80
59505;DHT22;45321;53.200;5.814;2022-09-21T18:40:47;17.50;61.00
59505;DHT22;45321;53.200;5.814;2022-09-21T18:46:07;17.40;61.60
59505;DHT22;45321;53.200;5.814;2022-09-21T18:54:02;17.20;62.40
59505;DHT22;45321;53.200;5.814;2022-09-21T18:56:34;17.20;62.50
59505;DHT22;45321;53.200;5.814;2022-09-21T18:59:01;17.20;62.80
59505;DHT22;45321;53.200;5.814;2022-09-21T19:01:28;17.10;62.90
59505;DHT22;45321;53.200;5.814;2022-09-21T19:03:58;17.00;62.90
59505;DHT22;45321;53.200;5.814;2022-09-21T19:20:54;16.80;63.50
59505;DHT22;45321;53.200;5.814;2022-09-21T19:23:28;16.80;63.70
59505;DHT22;45321;53.200;5.814;2022-09-21T19:26:22;16.80;63.70
59505;DHT22;45321;53.200;5.814;2022-09-21T19:29:02;16.70;64.00
59505;DHT22;45321;53.200;5.814;2022-09-21T19:31:33;16.70;63.50
59505;DHT22;45321;53.200;5.814;2022-09-21T19:34:14;16.70;63.80
59505;DHT22;45321;53.200;5.814;2022-09-21T19:36:41;16.70;63.80
59505;DHT22;45321;53.200;5.814;2022-09-21T19:39:09;16.70;63.90
59505;DHT22;45321;53.200;5.814;2022-09-21T19:41:50;16.60;64.20
59505;DHT22;45321;53.200;5.814;2022-09-21T19:47:38;16.50;64.20